Terminal Aerodrome Forecast
Issued by NWS

Home | Current Version | Previous Version | Text Only | Print | Product List | Glossary On
Versions: 1 2 3 4 5 6 7 8 9 10 11 12 13 14 15 16 17 18 19 20 21 22
000
FTUS46 KMTR 210100 AAA
TAFMRY
TAF AMD
KMRY 210150Z 2102/2124 24010KT P6SM SCT020
      TEMPO 2102/2106 BKN020
     FM210600 VRB04KT P6SM OVC012
     FM210800 VRB03KT P6SM OVC008
     FM211800 29009KT P6SM FEW012=

USA.gov is the U.S. government's official web portal to all federal, state and local government web resources and services.